createdAt,value
2022-08-16T00:00:03.441Z,5.68
2022-08-16T00:02:33.988Z,5.80
2022-08-16T00:05:02.622Z,5.57
2022-08-16T00:07:30.569Z,6.03
2022-08-16T00:09:59.036Z,6.10
2022-08-16T00:12:30.656Z,5.75
2022-08-16T00:15:01.632Z,5.28
2022-08-16T00:17:28.963Z,5.25
2022-08-16T00:20:16.361Z,5.70
2022-08-16T00:22:49.108Z,5.75
2022-08-16T00:26:33.637Z,5.93
2022-08-16T00:28:09.771Z,5.80
2022-08-16T00:30:38.477Z,5.78
2022-08-16T00:33:07.360Z,5.65
2022-08-16T00:35:37.471Z,6.13
2022-08-16T00:38:40.890Z,5.88
2022-08-16T00:40:54.844Z,5.80
2022-08-16T00:43:42.769Z,5.82
2022-08-16T00:46:33.144Z,5.57
2022-08-16T00:49:03.011Z,5.75
2022-08-16T00:51:30.891Z,5.88
2022-08-16T00:54:00.036Z,6.05
2022-08-16T00:56:56.148Z,5.65
2022-08-16T00:59:23.939Z,5.63
2022-08-16T01:01:52.319Z,5.72
2022-08-16T01:04:28.895Z,6.35
2022-08-16T01:07:03.236Z,6.97
2022-08-16T01:09:34.088Z,5.78
2022-08-16T01:12:03.646Z,5.88
2022-08-16T01:14:40.894Z,5.67
2022-08-16T01:17:13.946Z,5.88
2022-08-16T01:19:45.651Z,5.93
2022-08-16T01:22:48.280Z,5.57
2022-08-16T01:25:11.720Z,5.68
2022-08-16T01:27:48.503Z,5.82
2022-08-16T01:30:26.181Z,5.47
2022-08-16T01:33:02.488Z,6.10
2022-08-16T01:36:05.815Z,5.78
2022-08-16T01:38:49.265Z,6.05
2022-08-16T01:41:31.365Z,6.05
2022-08-16T01:44:01.192Z,5.68
2022-08-16T01:46:56.629Z,5.55
2022-08-16T01:50:40.764Z,5.47
2022-08-16T01:52:28.187Z,5.60
2022-08-16T01:54:57.989Z,5.35
2022-08-16T01:57:28.133Z,4.90
2022-08-16T01:59:59.553Z,4.10
2022-08-16T02:02:28.566Z,3.78
2022-08-16T02:04:58.290Z,4.40
2022-08-16T02:07:25.827Z,4.65
2022-08-16T02:09:57.286Z,4.32
2022-08-16T02:12:49.672Z,4.80
2022-08-16T02:15:18.271Z,4.28
2022-08-16T02:17:53.772Z,4.20
2022-08-16T02:20:26.487Z,3.92
2022-08-16T02:22:56.803Z,3.80
2022-08-16T02:25:25.732Z,4.30
2022-08-16T02:28:12.908Z,4.88
2022-08-16T02:30:50.586Z,5.00
2022-08-16T02:33:19.413Z,4.90
2022-08-16T02:35:46.697Z,4.90
2022-08-16T02:38:21.401Z,5.05
2022-08-16T02:40:48.745Z,5.30
2022-08-16T02:43:16.242Z,4.63
2022-08-16T02:45:44.017Z,4.47
2022-08-16T02:48:29.909Z,4.65
2022-08-16T02:51:10.691Z,4.50
2022-08-16T02:53:43.635Z,4.68
2022-08-16T02:56:14.633Z,4.63
2022-08-16T02:58:44.141Z,4.40
2022-08-16T03:01:24.890Z,4.90
2022-08-16T03:04:24.799Z,4.70
2022-08-16T03:06:56.791Z,4.63
2022-08-16T03:09:29.895Z,4.63
2022-08-16T03:12:00.948Z,4.50
2022-08-16T03:14:29.757Z,5.30
2022-08-16T03:16:59.482Z,4.85
2022-08-16T03:19:48.410Z,4.38
2022-08-16T03:22:19.136Z,4.18
2022-08-16T03:24:55.239Z,3.88
2022-08-16T03:27:30.553Z,4.05
2022-08-16T03:29:59.844Z,4.30
2022-08-16T03:32:27.136Z,4.68
2022-08-16T03:34:54.397Z,5.00
2022-08-16T03:37:21.736Z,4.30
2022-08-16T03:39:48.926Z,4.32
2022-08-16T03:42:24.136Z,4.60
2022-08-16T03:44:51.316Z,4.50
2022-08-16T03:47:30.594Z,4.32
2022-08-16T03:50:03.111Z,4.38
2022-08-16T03:52:31.513Z,4.75
2022-08-16T03:54:59.790Z,4.63
2022-08-16T03:57:31.933Z,4.70
2022-08-16T04:00:35.276Z,4.38
2022-08-16T04:03:08.497Z,4.90
2022-08-16T04:05:38.855Z,4.80
2022-08-16T04:08:22.331Z,4.85
2022-08-16T04:10:54.226Z,5.00
2022-08-16T04:16:26.088Z,4.95
2022-08-16T04:19:02.273Z,4.72
2022-08-16T04:21:33.477Z,5.50
2022-08-16T04:24:02.847Z,5.40
2022-08-16T04:26:30.826Z,5.70
2022-08-16T04:29:16.236Z,5.38
2022-08-16T04:31:55.714Z,5.43
2022-08-16T04:34:27.486Z,5.13
2022-08-16T04:39:24.766Z,5.25
2022-08-16T04:42:11.237Z,5.05
2022-08-16T04:44:54.615Z,5.47
2022-08-16T04:47:31.343Z,5.32
2022-08-16T04:50:00.157Z,5.57
2022-08-16T04:52:35.276Z,5.57
2022-08-16T04:55:13.798Z,5.63
2022-08-16T04:57:43.292Z,5.70
2022-08-16T05:00:30.354Z,5.38
2022-08-16T05:03:08.421Z,6.05
2022-08-16T05:05:45.173Z,5.93
2022-08-16T05:08:29.674Z,5.45
2022-08-16T05:11:05.538Z,5.35
2022-08-16T05:13:40.334Z,5.85
2022-08-16T05:16:19.947Z,6.30
2022-08-16T05:18:48.533Z,5.88
2022-08-16T05:21:16.026Z,5.93
2022-08-16T05:23:51.435Z,5.93
2022-08-16T05:26:27.945Z,6.30
2022-08-16T05:29:00.070Z,5.90
2022-08-16T05:31:31.099Z,6.28
2022-08-16T05:34:00.567Z,6.07
2022-08-16T05:36:33.982Z,5.63
2022-08-16T05:39:05.916Z,5.80
2022-08-16T05:41:33.263Z,6.25
2022-08-16T05:44:23.732Z,5.53
2022-08-16T05:47:00.378Z,6.30
2022-08-16T05:49:39.188Z,6.40
2022-08-16T05:54:46.825Z,5.50
2022-08-16T05:57:16.893Z,5.97
2022-08-16T05:59:45.705Z,5.95
2022-08-16T06:02:14.327Z,5.57
2022-08-16T06:04:44.914Z,6.13
2022-08-16T06:07:24.881Z,6.32
2022-08-16T06:09:59.873Z,6.18
2022-08-16T06:12:29.073Z,5.93
2022-08-16T06:14:59.919Z,5.47
2022-08-16T06:17:43.396Z,6.15
2022-08-16T06:20:23.488Z,5.45
2022-08-16T06:22:58.889Z,5.25
2022-08-16T06:25:36.300Z,5.95
2022-08-16T06:28:10.116Z,6.20
2022-08-16T06:30:43.458Z,6.28
2022-08-16T06:33:22.120Z,5.57
2022-08-16T06:35:55.324Z,5.55
2022-08-16T06:38:33.802Z,5.47
2022-08-16T06:41:04.304Z,6.07
2022-08-16T06:43:32.443Z,5.40
2022-08-16T06:46:03.744Z,5.75
2022-08-16T06:48:33.785Z,5.57
2022-08-16T06:51:04.365Z,6.25
2022-08-16T06:56:14.857Z,6.00
2022-08-16T06:58:52.391Z,6.47
2022-08-16T07:01:42.945Z,6.07
2022-08-16T07:04:12.146Z,5.90
2022-08-16T07:06:43.607Z,5.70
2022-08-16T07:09:15.840Z,6.13
2022-08-16T07:11:47.932Z,5.90
2022-08-16T07:14:26.395Z,6.47
2022-08-16T07:16:58.324Z,6.07
2022-08-16T07:20:01.901Z,5.90
2022-08-16T07:22:39.102Z,5.95
2022-08-16T07:25:06.413Z,5.75
2022-08-16T07:27:37.376Z,6.15
2022-08-16T07:30:45.139Z,6.43
2022-08-16T07:32:55.907Z,5.50
2022-08-16T07:35:25.020Z,6.70
2022-08-16T07:37:52.881Z,6.10
2022-08-16T07:40:31.850Z,5.82
2022-08-16T07:43:07.254Z,5.68
2022-08-16T07:45:35.147Z,5.43
2022-08-16T07:48:11.714Z,5.97
2022-08-16T07:50:56.422Z,6.38
2022-08-16T07:53:25.388Z,6.05
2022-08-16T07:55:56.919Z,5.82
2022-08-16T07:58:34.475Z,5.93
2022-08-16T08:01:05.862Z,6.35
2022-08-16T08:03:41.515Z,5.70
2022-08-16T08:06:10.354Z,5.10
2022-08-16T08:08:50.385Z,6.45
2022-08-16T08:11:21.538Z,6.22
2022-08-16T08:13:50.706Z,5.75
2022-08-16T08:16:20.014Z,6.25
2022-08-16T08:18:55.948Z,5.38
2022-08-16T08:22:01.305Z,5.65
2022-08-16T08:24:15.568Z,5.40
2022-08-16T08:26:43.328Z,5.65
2022-08-16T08:29:12.020Z,5.55
2022-08-16T08:31:42.592Z,5.65
2022-08-16T08:34:12.771Z,5.95
2022-08-16T08:36:40.428Z,5.60
2022-08-16T08:39:12.673Z,5.47
2022-08-16T08:41:42.410Z,5.10
2022-08-16T08:44:28.691Z,5.40
2022-08-16T08:47:05.626Z,5.10
2022-08-16T08:49:46.388Z,5.40
2022-08-16T08:52:34.849Z,5.63
2022-08-16T08:55:10.614Z,10.35
2022-08-16T08:57:46.229Z,6.13
2022-08-16T09:00:17.881Z,5.93
2022-08-16T09:02:52.252Z,5.18
2022-08-16T09:05:24.868Z,5.22
2022-08-16T09:08:05.776Z,5.72
2022-08-16T09:10:33.739Z,5.07
2022-08-16T09:13:01.841Z,5.50
2022-08-16T09:15:32.655Z,5.20
2022-08-16T09:18:26.235Z,5.28
2022-08-16T09:20:59.957Z,5.57
2022-08-16T09:23:36.420Z,5.32
2022-08-16T09:26:46.275Z,5.53
2022-08-16T09:29:16.200Z,5.20
2022-08-16T09:31:41.876Z,5.18
2022-08-16T09:34:10.392Z,5.03
2022-08-16T09:36:46.127Z,5.03
2022-08-16T09:39:15.731Z,4.88
2022-08-16T09:41:53.920Z,4.63
2022-08-16T09:45:12.274Z,5.45
2022-08-16T09:47:13.187Z,5.35
2022-08-16T09:49:41.343Z,5.10
2022-08-16T09:52:10.277Z,5.38
2022-08-16T09:54:44.605Z,5.32
2022-08-16T09:57:12.510Z,5.22
2022-08-16T09:59:41.958Z,4.95
2022-08-16T10:02:26.136Z,5.05
2022-08-16T10:04:57.472Z,5.10
2022-08-16T10:07:44.226Z,5.25
2022-08-16T10:10:19.113Z,4.80
2022-08-16T10:13:12.717Z,4.78
2022-08-16T10:15:43.887Z,4.95
2022-08-16T10:19:01.418Z,4.88
2022-08-16T10:21:10.083Z,5.05
2022-08-16T10:23:37.198Z,5.18
2022-08-16T10:27:19.426Z,5.03
2022-08-16T10:28:52.888Z,4.88
2022-08-16T10:31:44.241Z,4.68
2022-08-16T10:34:31.872Z,5.00
2022-08-16T10:36:55.083Z,5.07
2022-08-16T10:39:22.326Z,5.07
2022-08-16T10:41:51.551Z,5.10
2022-08-16T10:44:18.677Z,5.20
2022-08-16T10:46:45.835Z,4.90
2022-08-16T10:49:16.836Z,5.00
2022-08-16T10:52:01.618Z,4.65
2022-08-16T10:54:31.522Z,4.55
2022-08-16T10:57:00.509Z,4.72
2022-08-16T10:59:32.722Z,4.78
2022-08-16T11:05:18.044Z,4.95
2022-08-16T11:07:43.599Z,4.70
2022-08-16T11:10:20.713Z,4.55
2022-08-16T11:12:48.701Z,4.68
2022-08-16T11:15:20.485Z,4.35
2022-08-16T11:18:21.313Z,4.60
2022-08-16T11:20:42.098Z,4.40
2022-08-16T11:23:11.410Z,4.75
2022-08-16T11:31:13.907Z,4.07
2022-08-16T11:33:56.322Z,4.57
2022-08-16T11:36:27.780Z,4.20
2022-08-16T11:39:00.557Z,4.03
2022-08-16T11:41:29.472Z,4.20
2022-08-16T11:44:00.071Z,4.13
2022-08-16T11:46:45.242Z,4.30
2022-08-16T11:49:14.453Z,4.20
2022-08-16T11:51:44.471Z,4.22
2022-08-16T11:54:20.816Z,4.80
2022-08-16T11:56:53.278Z,4.60
2022-08-16T11:59:25.401Z,4.13
2022-08-16T12:01:59.705Z,4.03
2022-08-16T12:04:28.151Z,4.43
2022-08-16T12:06:55.457Z,4.07
2022-08-16T12:09:24.697Z,4.68
2022-08-16T12:11:52.776Z,4.53
2022-08-16T12:14:22.890Z,4.60
2022-08-16T12:16:55.189Z,3.97
2022-08-16T12:19:35.549Z,4.15
2022-08-16T12:22:19.316Z,4.05
2022-08-16T12:24:52.012Z,4.20
2022-08-16T12:27:23.155Z,3.85
2022-08-16T12:29:52.248Z,4.10
2022-08-16T12:32:36.003Z,4.15
2022-08-16T12:35:16.082Z,4.60
2022-08-16T12:37:46.203Z,4.40
2022-08-16T12:40:25.050Z,4.10
2022-08-16T12:42:58.909Z,4.38
2022-08-16T12:45:33.639Z,4.45
2022-08-16T12:48:33.917Z,4.63
2022-08-16T12:51:13.497Z,4.27
2022-08-16T12:53:53.401Z,4.22
2022-08-16T12:56:25.446Z,4.37
2022-08-16T12:58:55.984Z,4.57
2022-08-16T13:01:27.110Z,4.38
2022-08-16T13:04:12.376Z,4.50
2022-08-16T13:06:44.520Z,4.78
2022-08-16T13:09:20.938Z,4.70
2022-08-16T13:12:09.726Z,4.50
2022-08-16T13:14:41.425Z,4.65
2022-08-16T13:17:18.746Z,4.38
2022-08-16T13:22:56.072Z,4.35
2022-08-16T13:25:26.507Z,4.57
2022-08-16T13:28:02.860Z,4.78
2022-08-16T13:30:50.778Z,4.90
2022-08-16T13:33:29.721Z,4.50
2022-08-16T13:35:59.507Z,4.40
2022-08-16T13:41:08.424Z,4.80
2022-08-16T13:43:37.098Z,5.07
2022-08-16T13:46:05.269Z,5.38
2022-08-16T13:48:42.498Z,5.10
2022-08-16T13:51:18.689Z,5.13
2022-08-16T13:54:03.006Z,5.03
2022-08-16T13:56:38.845Z,5.45
2022-08-16T13:59:20.141Z,5.32
2022-08-16T14:01:55.172Z,5.70
2022-08-16T14:04:40.450Z,5.40
2022-08-16T14:07:12.327Z,5.72
2022-08-16T14:09:47.728Z,5.57
2022-08-16T14:12:22.758Z,5.70
2022-08-16T14:14:56.360Z,5.53
2022-08-16T14:17:26.087Z,5.07
2022-08-16T14:19:53.578Z,5.10
2022-08-16T14:22:35.637Z,4.85
2022-08-16T14:25:07.305Z,4.80
2022-08-16T14:27:39.115Z,4.70
2022-08-16T14:30:11.910Z,4.80
2022-08-16T14:32:46.921Z,5.30
2022-08-16T14:35:29.391Z,4.97
2022-08-16T14:38:05.238Z,4.63
2022-08-16T14:40:33.102Z,4.63
2022-08-16T14:43:07.283Z,4.85
2022-08-16T14:45:34.752Z,4.68
2022-08-16T14:48:01.917Z,5.10
2022-08-16T14:50:29.467Z,5.20
2022-08-16T14:53:06.947Z,4.53
2022-08-16T14:55:36.629Z,4.72
2022-08-16T14:58:06.185Z,4.80
2022-08-16T15:00:37.702Z,4.70
2022-08-16T15:03:09.624Z,5.10
2022-08-16T15:05:39.090Z,4.80
2022-08-16T15:08:06.401Z,5.13
2022-08-16T15:10:37.361Z,5.07
2022-08-16T15:13:09.537Z,5.38
2022-08-16T15:15:38.865Z,5.15
2022-08-16T15:18:09.949Z,5.18
2022-08-16T15:20:39.424Z,5.03
2022-08-16T15:23:09.950Z,4.70
2022-08-16T15:25:41.993Z,5.38
2022-08-16T15:28:31.236Z,5.25
2022-08-16T15:31:03.374Z,4.65
2022-08-16T15:33:33.946Z,5.00
2022-08-16T15:38:56.824Z,5.20
2022-08-16T15:41:43.566Z,4.75
2022-08-16T15:44:22.653Z,4.85
2022-08-16T15:46:58.556Z,5.23
2022-08-16T15:49:37.961Z,4.72
2022-08-16T15:52:24.789Z,5.43
2022-08-16T15:54:57.549Z,4.90
2022-08-16T15:57:27.163Z,5.30
2022-08-16T15:59:56.271Z,4.75
2022-08-16T16:02:33.675Z,4.70
2022-08-16T16:05:04.578Z,4.90
2022-08-16T16:07:33.452Z,4.93
2022-08-16T16:10:03.880Z,5.28
2022-08-16T16:12:51.163Z,5.40
2022-08-16T16:15:22.813Z,4.82
2022-08-16T16:17:52.174Z,5.07
2022-08-16T16:20:27.192Z,5.50
2022-08-16T16:23:00.431Z,5.10
2022-08-16T16:25:29.335Z,5.32
2022-08-16T16:27:59.490Z,5.18
2022-08-16T16:30:37.838Z,5.15
2022-08-16T16:33:21.048Z,5.03
2022-08-16T16:35:55.579Z,4.88
2022-08-16T16:38:29.083Z,5.00
2022-08-16T16:40:58.130Z,4.60
2022-08-16T16:43:31.965Z,4.65
2022-08-16T16:46:01.722Z,4.80
2022-08-16T16:48:34.970Z,5.15
2022-08-16T16:51:09.920Z,5.07
2022-08-16T16:53:41.458Z,4.80
2022-08-16T16:56:19.595Z,5.40
2022-08-16T16:59:01.732Z,5.00
2022-08-16T17:02:00.295Z,4.80
2022-08-16T17:04:42.819Z,4.95
2022-08-16T17:07:11.753Z,5.40
2022-08-16T17:09:40.926Z,4.87
2022-08-16T17:12:15.422Z,4.97
2022-08-16T17:14:54.212Z,5.15
2022-08-16T17:17:21.922Z,5.22
2022-08-16T17:19:49.207Z,4.72
2022-08-16T17:22:20.431Z,5.13
2022-08-16T17:24:50.649Z,4.90
2022-08-16T17:27:32.970Z,4.82
2022-08-16T17:30:17.056Z,5.07
2022-08-16T17:32:54.999Z,4.57
2022-08-16T17:35:33.949Z,4.80
2022-08-16T17:38:07.451Z,4.70
2022-08-16T17:40:46.814Z,4.57
2022-08-16T17:43:31.376Z,5.07
2022-08-16T17:45:59.215Z,4.60
2022-08-16T17:48:27.381Z,4.78
2022-08-16T17:50:55.071Z,4.93
2022-08-16T17:53:23.288Z,5.25
2022-08-16T17:55:51.245Z,5.13
2022-08-16T17:58:22.671Z,5.47
2022-08-16T18:00:56.740Z,5.25
2022-08-16T18:04:02.810Z,5.05
2022-08-16T18:06:23.060Z,5.55
2022-08-16T18:08:55.879Z,5.07
2022-08-16T18:11:28.452Z,5.90
2022-08-16T18:13:55.847Z,5.28
2022-08-16T18:16:23.346Z,5.38
2022-08-16T18:18:50.616Z,5.32
2022-08-16T18:21:56.077Z,5.28
2022-08-16T18:24:25.112Z,4.68
2022-08-16T18:26:52.628Z,5.13
2022-08-16T18:29:20.800Z,5.55
2022-08-16T18:31:51.150Z,5.57
2022-08-16T18:34:20.861Z,5.47
2022-08-16T18:36:48.679Z,5.28
2022-08-16T18:39:16.558Z,5.53
2022-08-16T18:41:47.223Z,5.90
2022-08-16T18:44:25.388Z,5.47
2022-08-16T18:46:54.669Z,5.60
2022-08-16T18:49:22.124Z,5.65
2022-08-16T18:51:51.052Z,5.40
2022-08-16T18:54:18.761Z,5.47
2022-08-16T18:56:55.105Z,5.47
2022-08-16T18:59:30.643Z,5.70
2022-08-16T19:02:04.876Z,5.57
2022-08-16T19:04:56.535Z,5.53
2022-08-16T19:07:29.621Z,5.68
2022-08-16T19:10:00.984Z,5.88
2022-08-16T19:12:38.898Z,5.07
2022-08-16T19:15:17.643Z,5.57
2022-08-16T19:17:46.489Z,5.97
2022-08-16T19:20:17.729Z,5.78
2022-08-16T19:23:05.270Z,5.32
2022-08-16T19:25:46.325Z,5.78
2022-08-16T19:28:50.896Z,5.80
2022-08-16T19:31:30.020Z,5.50
2022-08-16T19:33:57.972Z,5.57
2022-08-16T19:36:44.794Z,5.70
2022-08-16T19:39:14.962Z,5.70
2022-08-16T19:44:11.967Z,5.47
2022-08-16T19:46:43.680Z,6.03
2022-08-16T19:49:16.058Z,6.32
2022-08-16T19:51:48.268Z,6.25
2022-08-16T19:54:15.701Z,5.90
2022-08-16T19:56:42.892Z,6.13
2022-08-16T19:59:39.367Z,5.93
2022-08-16T20:01:57.599Z,6.00
2022-08-16T20:04:26.045Z,6.53
2022-08-16T20:06:54.259Z,6.35
2022-08-16T20:09:22.511Z,6.43
2022-08-16T20:11:50.700Z,6.30
2022-08-16T20:14:24.162Z,6.50
2022-08-16T20:16:54.746Z,6.35
2022-08-16T20:19:21.958Z,6.50
2022-08-16T20:21:49.921Z,6.88
2022-08-16T20:24:33.553Z,6.20
2022-08-16T20:27:03.390Z,6.05
2022-08-16T20:29:30.575Z,6.25
2022-08-16T20:31:57.980Z,6.22
2022-08-16T20:34:25.190Z,5.95
2022-08-16T20:36:52.231Z,5.55
2022-08-16T20:39:19.380Z,6.57
2022-08-16T20:44:31.291Z,6.35
2022-08-16T20:46:58.461Z,6.10
2022-08-16T20:49:25.639Z,6.50
2022-08-16T20:51:57.366Z,5.72
2022-08-16T20:54:27.270Z,6.05
2022-08-16T20:56:54.511Z,6.20
2022-08-16T20:59:21.721Z,5.75
2022-08-16T21:01:50.205Z,5.70
2022-08-16T21:04:20.145Z,5.88
2022-08-16T21:06:53.635Z,5.37
2022-08-16T21:09:33.805Z,5.28
2022-08-16T21:12:12.932Z,5.13
2022-08-16T21:14:43.305Z,5.22
2022-08-16T21:17:13.227Z,5.38
2022-08-16T21:19:41.123Z,5.22
2022-08-16T21:22:22.582Z,5.20
2022-08-16T21:24:53.798Z,4.97
2022-08-16T21:27:21.516Z,5.10
2022-08-16T21:29:52.533Z,5.43
2022-08-16T21:32:35.235Z,5.40
2022-08-16T21:35:08.383Z,5.55
2022-08-16T21:37:35.702Z,5.53
2022-08-16T21:40:04.295Z,5.65
2022-08-16T21:42:36.182Z,5.25
2022-08-16T21:45:04.323Z,5.38
2022-08-16T21:47:31.582Z,5.05
2022-08-16T21:49:58.822Z,5.70
2022-08-16T21:52:27.015Z,5.70
2022-08-16T21:54:56.632Z,5.50
2022-08-16T21:57:24.243Z,5.30
2022-08-16T21:59:53.163Z,5.43
2022-08-16T22:02:22.023Z,5.38
2022-08-16T22:04:49.744Z,5.80
2022-08-16T22:07:18.447Z,5.45
2022-08-16T22:09:47.063Z,5.68
2022-08-16T22:12:24.088Z,5.32
2022-08-16T22:14:51.658Z,4.90
2022-08-16T22:17:19.411Z,5.40
2022-08-16T22:19:46.810Z,5.38
2022-08-16T22:22:14.206Z,5.40
2022-08-16T22:24:41.348Z,5.30
2022-08-16T22:27:08.665Z,5.68
2022-08-16T22:29:35.869Z,5.68
2022-08-16T22:32:07.510Z,5.38
2022-08-16T22:34:34.728Z,5.78
2022-08-16T22:37:01.997Z,5.10
2022-08-16T22:39:29.320Z,5.05
2022-08-16T22:41:57.125Z,5.75
2022-08-16T22:44:24.859Z,5.50
2022-08-16T22:46:52.099Z,5.68
2022-08-16T22:49:19.356Z,5.72
2022-08-16T22:51:46.567Z,5.75
2022-08-16T22:54:43.935Z,5.97
2022-08-16T22:57:02.034Z,5.80
2022-08-16T22:59:30.615Z,6.68
2022-08-16T23:01:58.686Z,6.32
2022-08-16T23:04:26.402Z,5.88
2022-08-16T23:06:53.979Z,6.30
2022-08-16T23:09:21.347Z,6.30
2022-08-16T23:11:48.749Z,5.97
2022-08-16T23:14:16.592Z,6.10
2022-08-16T23:16:46.099Z,5.28
2022-08-16T23:19:16.870Z,5.75
2022-08-16T23:21:47.089Z,5.15
2022-08-16T23:24:19.544Z,5.55
2022-08-16T23:26:49.077Z,5.60
2022-08-16T23:29:23.157Z,5.43
2022-08-16T23:31:58.740Z,5.43
2022-08-16T23:34:28.080Z,5.40
2022-08-16T23:36:55.583Z,5.57
2022-08-16T23:39:24.101Z,5.00
2022-08-16T23:41:52.069Z,4.90
2022-08-16T23:44:55.743Z,5.10
2022-08-16T23:47:06.591Z,5.30
2022-08-16T23:49:57.136Z,5.60
2022-08-16T23:52:45.191Z,5.82
2022-08-16T23:55:09.757Z,5.93
2022-08-16T23:57:37.788Z,5.95
